Portada
METAR-TAF:

METAR-TAF

Aeroports :

Wheeling - Ohio County Airport

Wheeling, Virgínia de l'Oest, Estats Units d'Amèrica

latitud: 40-10-13N, longitud: 080-38-40W, altitud: 364 m

Observació

L'informe es va fer fa 1 hora i 5 minuts, a les 00:53 UTC
Vent 3 kt del Nord
Temperatura 25°C
Humitat 47%
Pressió 1020 hPa
Visibilitat: 16.1 km
Cel clar

METAR: KHLG 150053Z 35003KT 10SM CLR 25/13 A3011 RMK AO2 SLP190 T02500128

Hora: 21:58 (01:58 UTC)

Pronòstic

L'informe es va fer fa 2 hores i 38 minuts, a les 23:20 UTC
Pronòstic vàlid del 15 a les 00 UTC al 15 a les 24 UTC
Vent kt del Nord
Visibilitat: 10 km
Cel clar
A partir de les 15 a les 1500 UTC
Vent 5 kt del Sud/Sud-Est
Visibilitat: 10 km
Núvols disperses a una alçada de 25000 ft

TAF: KHLG 142320Z 1500/1524 00000KT P6SM SKC FM151500 16005KT P6SM SCT250

Observacions i pronòstics meteorològics de més de 4000 aeroports (METAR i TAF).

Les estacions disponibles són els punts grocs i vermells al mapa.

Posi el ratolí al punt desitjat per veure el nom de l'estació.

Feu clic per veure les observacions i els pronòstics meteorològics.

Per canviar el mapa: feu clic els botons verds amb una creu de color negre per apropar; al botó verd amb un guió per allunyar la imatge; o en les fletxes verdes per a mapes adjacents.


METAR-TAF: